sensor_id;sensor_type;location;lat;lon;timestamp;temperature;humidity
2945;DHT22;1482;51.398;7.128;2022-11-25T00:02:05;9.10;1.00
2945;DHT22;1482;51.398;7.128;2022-11-25T00:04:30;9.10;1.00
2945;DHT22;1482;51.398;7.128;2022-11-25T00:07:01;9.20;1.00
2945;DHT22;1482;51.398;7.128;2022-11-25T00:09:27;9.20;1.00
2945;DHT22;1482;51.398;7.128;2022-11-25T00:11:53;9.30;1.00
2945;DHT22;1482;51.398;7.128;2022-11-25T00:14:18;9.30;1.00
2945;DHT22;1482;51.398;7.128;2022-11-25T00:16:44;9.20;1.00
2945;DHT22;1482;51.398;7.128;2022-11-25T00:19:10;9.20;1.00
2945;DHT22;1482;51.398;7.128;2022-11-25T00:21:36;9.30;1.00
2945;DHT22;1482;51.398;7.128;2022-11-25T00:24:04;9.20;1.00
2945;DHT22;1482;51.398;7.128;2022-11-25T00:26:31;9.30;1.00
2945;DHT22;1482;51.398;7.128;2022-11-25T00:28:58;9.20;1.00
2945;DHT22;1482;51.398;7.128;2022-11-25T00:31:29;9.20;1.00
2945;DHT22;1482;51.398;7.128;2022-11-25T00:33:55;9.20;1.00
2945;DHT22;1482;51.398;7.128;2022-11-25T00:36:23;9.20;1.00
2945;DHT22;1482;51.398;7.128;2022-11-25T00:39:00;9.20;1.00
2945;DHT22;1482;51.398;7.128;2022-11-25T00:41:27;9.20;1.00
2945;DHT22;1482;51.398;7.128;2022-11-25T00:44:14;9.10;5.30
2945;DHT22;1482;51.398;7.128;2022-11-25T00:46:58;9.20;7.70
2945;DHT22;1482;51.398;7.128;2022-11-25T00:49:24;9.10;10.80
2945;DHT22;1482;51.398;7.128;2022-11-25T00:51:50;9.20;8.70
2945;DHT22;1482;51.398;7.128;2022-11-25T00:54:16;9.20;10.00
2945;DHT22;1482;51.398;7.128;2022-11-25T00:56:42;9.10;8.90
2945;DHT22;1482;51.398;7.128;2022-11-25T00:59:07;9.10;15.90
2945;DHT22;1482;51.398;7.128;2022-11-25T01:01:34;9.10;19.00
2945;DHT22;1482;51.398;7.128;2022-11-25T01:04:00;9.10;19.00
2945;DHT22;1482;51.398;7.128;2022-11-25T01:06:26;9.20;15.20
2945;DHT22;1482;51.398;7.128;2022-11-25T01:08:52;9.20;14.40
2945;DHT22;1482;51.398;7.128;2022-11-25T01:11:20;9.20;16.70
2945;DHT22;1482;51.398;7.128;2022-11-25T01:13:46;9.10;15.50
2945;DHT22;1482;51.398;7.128;2022-11-25T01:16:14;9.10;22.30
2945;DHT22;1482;51.398;7.128;2022-11-25T01:18:41;9.20;22.30
2945;DHT22;1482;51.398;7.128;2022-11-25T01:21:08;9.20;25.00
2945;DHT22;1482;51.398;7.128;2022-11-25T01:23:34;9.20;22.50
2945;DHT22;1482;51.398;7.128;2022-11-25T01:26:04;9.10;22.40
2945;DHT22;1482;51.398;7.128;2022-11-25T01:28:30;9.20;26.30
2945;DHT22;1482;51.398;7.128;2022-11-25T01:31:01;9.10;24.80
2945;DHT22;1482;51.398;7.128;2022-11-25T01:33:28;9.20;26.00
2945;DHT22;1482;51.398;7.128;2022-11-25T01:36:00;9.20;24.80
2945;DHT22;1482;51.398;7.128;2022-11-25T01:38:26;9.10;28.40
2945;DHT22;1482;51.398;7.128;2022-11-25T01:40:52;9.20;29.90
2945;DHT22;1482;51.398;7.128;2022-11-25T01:43:18;9.10;35.40
2945;DHT22;1482;51.398;7.128;2022-11-25T01:45:43;9.00;39.50
2945;DHT22;1482;51.398;7.128;2022-11-25T01:48:20;9.10;41.90
2945;DHT22;1482;51.398;7.128;2022-11-25T01:50:47;9.10;44.90
2945;DHT22;1482;51.398;7.128;2022-11-25T01:53:14;9.00;49.00
2945;DHT22;1482;51.398;7.128;2022-11-25T01:55:44;9.00;46.20
2945;DHT22;1482;51.398;7.128;2022-11-25T01:58:16;9.00;49.70
2945;DHT22;1482;51.398;7.128;2022-11-25T02:00:43;9.10;51.50
2945;DHT22;1482;51.398;7.128;2022-11-25T02:03:23;9.00;51.40
2945;DHT22;1482;51.398;7.128;2022-11-25T02:08:15;9.10;52.70
2945;DHT22;1482;51.398;7.128;2022-11-25T02:10:42;9.20;46.70
2945;DHT22;1482;51.398;7.128;2022-11-25T02:13:09;9.20;45.20
2945;DHT22;1482;51.398;7.128;2022-11-25T02:15:35;9.30;39.90
2945;DHT22;1482;51.398;7.128;2022-11-25T02:18:01;9.30;40.00
2945;DHT22;1482;51.398;7.128;2022-11-25T02:20:27;9.30;41.40
2945;DHT22;1482;51.398;7.128;2022-11-25T02:25:35;9.30;44.40
2945;DHT22;1482;51.398;7.128;2022-11-25T02:28:04;9.30;44.60
2945;DHT22;1482;51.398;7.128;2022-11-25T02:30:31;9.30;44.50
2945;DHT22;1482;51.398;7.128;2022-11-25T02:32:58;9.40;46.50
2945;DHT22;1482;51.398;7.128;2022-11-25T02:35:30;9.40;46.30
2945;DHT22;1482;51.398;7.128;2022-11-25T02:38:00;9.40;49.10
2945;DHT22;1482;51.398;7.128;2022-11-25T02:40:27;9.50;45.10
2945;DHT22;1482;51.398;7.128;2022-11-25T02:42:55;9.50;38.10
2945;DHT22;1482;51.398;7.128;2022-11-25T02:45:29;9.50;42.30
2945;DHT22;1482;51.398;7.128;2022-11-25T02:47:57;9.50;40.50
2945;DHT22;1482;51.398;7.128;2022-11-25T02:50:22;9.50;39.90
2945;DHT22;1482;51.398;7.128;2022-11-25T02:52:48;9.50;40.10
2945;DHT22;1482;51.398;7.128;2022-11-25T02:55:13;9.50;37.00
2945;DHT22;1482;51.398;7.128;2022-11-25T02:57:39;9.60;38.60
2945;DHT22;1482;51.398;7.128;2022-11-25T03:00:05;9.70;28.80
2945;DHT22;1482;51.398;7.128;2022-11-25T03:02:30;9.70;26.60
2945;DHT22;1482;51.398;7.128;2022-11-25T03:04:56;9.80;19.40
2945;DHT22;1482;51.398;7.128;2022-11-25T03:07:22;9.80;20.30
2945;DHT22;1482;51.398;7.128;2022-11-25T03:09:47;9.80;17.90
2945;DHT22;1482;51.398;7.128;2022-11-25T03:12:13;9.90;13.30
2945;DHT22;1482;51.398;7.128;2022-11-25T03:14:44;9.90;12.50
2945;DHT22;1482;51.398;7.128;2022-11-25T03:17:10;9.90;10.20
2945;DHT22;1482;51.398;7.128;2022-11-25T03:19:36;9.90;7.70
2945;DHT22;1482;51.398;7.128;2022-11-25T03:22:02;9.90;8.70
2945;DHT22;1482;51.398;7.128;2022-11-25T03:24:28;9.90;8.50
2945;DHT22;1482;51.398;7.128;2022-11-25T03:26:53;9.90;8.80
2945;DHT22;1482;51.398;7.128;2022-11-25T03:29:19;10.00;7.20
2945;DHT22;1482;51.398;7.128;2022-11-25T03:31:44;10.00;5.30
2945;DHT22;1482;51.398;7.128;2022-11-25T03:34:10;9.90;7.00
2945;DHT22;1482;51.398;7.128;2022-11-25T03:36:36;10.00;5.50
2945;DHT22;1482;51.398;7.128;2022-11-25T03:39:02;10.00;2.70
2945;DHT22;1482;51.398;7.128;2022-11-25T03:41:28;10.00;4.40
2945;DHT22;1482;51.398;7.128;2022-11-25T03:43:53;10.00;8.50
2945;DHT22;1482;51.398;7.128;2022-11-25T03:46:19;10.10;9.40
2945;DHT22;1482;51.398;7.128;2022-11-25T03:48:44;10.10;14.90
2945;DHT22;1482;51.398;7.128;2022-11-25T03:51:10;10.10;18.00
2945;DHT22;1482;51.398;7.128;2022-11-25T03:53:35;10.10;21.10
2945;DHT22;1482;51.398;7.128;2022-11-25T03:56:01;10.10;17.50
2945;DHT22;1482;51.398;7.128;2022-11-25T03:58:26;10.10;18.50
2945;DHT22;1482;51.398;7.128;2022-11-25T04:00:52;10.10;24.30
2945;DHT22;1482;51.398;7.128;2022-11-25T04:03:17;10.00;23.70
2945;DHT22;1482;51.398;7.128;2022-11-25T04:05:43;10.00;26.40
2945;DHT22;1482;51.398;7.128;2022-11-25T04:08:08;10.10;27.80
2945;DHT22;1482;51.398;7.128;2022-11-25T04:10:34;10.10;24.10
2945;DHT22;1482;51.398;7.128;2022-11-25T04:12:59;10.10;16.20
2945;DHT22;1482;51.398;7.128;2022-11-25T04:15:25;10.10;20.70
2945;DHT22;1482;51.398;7.128;2022-11-25T04:17:51;10.10;24.50
2945;DHT22;1482;51.398;7.128;2022-11-25T04:20:16;10.10;21.70
2945;DHT22;1482;51.398;7.128;2022-11-25T04:22:42;10.10;26.10
2945;DHT22;1482;51.398;7.128;2022-11-25T04:25:08;10.10;28.30
2945;DHT22;1482;51.398;7.128;2022-11-25T04:27:34;10.20;28.90
2945;DHT22;1482;51.398;7.128;2022-11-25T04:30:00;10.10;33.30
2945;DHT22;1482;51.398;7.128;2022-11-25T04:32:25;10.20;36.90
2945;DHT22;1482;51.398;7.128;2022-11-25T04:34:51;10.10;48.00
2945;DHT22;1482;51.398;7.128;2022-11-25T04:37:16;10.10;56.10
2945;DHT22;1482;51.398;7.128;2022-11-25T04:39:42;10.10;74.50
2945;DHT22;1482;51.398;7.128;2022-11-25T04:42:07;10.10;91.80
2945;DHT22;1482;51.398;7.128;2022-11-25T04:44:51;10.10;99.90
2945;DHT22;1482;51.398;7.128;2022-11-25T04:47:17;10.00;99.90
2945;DHT22;1482;51.398;7.128;2022-11-25T04:49:42;10.00;99.90
2945;DHT22;1482;51.398;7.128;2022-11-25T04:52:08;9.90;99.90
2945;DHT22;1482;51.398;7.128;2022-11-25T04:54:34;10.00;99.90
2945;DHT22;1482;51.398;7.128;2022-11-25T04:56:59;10.00;99.90
2945;DHT22;1482;51.398;7.128;2022-11-25T04:59:25;9.90;99.90
2945;DHT22;1482;51.398;7.128;2022-11-25T05:02:13;10.00;99.90
2945;DHT22;1482;51.398;7.128;2022-11-25T05:04:40;10.00;99.90
2945;DHT22;1482;51.398;7.128;2022-11-25T05:07:07;10.00;99.90
2945;DHT22;1482;51.398;7.128;2022-11-25T05:09:33;10.10;99.90
2945;DHT22;1482;51.398;7.128;2022-11-25T05:11:58;10.00;99.90
2945;DHT22;1482;51.398;7.128;2022-11-25T05:14:24;10.00;99.90
2945;DHT22;1482;51.398;7.128;2022-11-25T05:16:50;10.00;99.90
2945;DHT22;1482;51.398;7.128;2022-11-25T05:19:16;9.90;99.90
2945;DHT22;1482;51.398;7.128;2022-11-25T05:21:41;10.00;99.90
2945;DHT22;1482;51.398;7.128;2022-11-25T05:24:07;9.90;99.90
2945;DHT22;1482;51.398;7.128;2022-11-25T05:26:33;9.90;99.90
2945;DHT22;1482;51.398;7.128;2022-11-25T05:28:58;9.90;99.90
2945;DHT22;1482;51.398;7.128;2022-11-25T05:31:24;9.90;99.90
2945;DHT22;1482;51.398;7.128;2022-11-25T05:33:49;10.00;99.90
2945;DHT22;1482;51.398;7.128;2022-11-25T05:36:15;10.00;99.90
2945;DHT22;1482;51.398;7.128;2022-11-25T05:38:41;10.00;99.90
2945;DHT22;1482;51.398;7.128;2022-11-25T05:41:07;9.90;99.90
2945;DHT22;1482;51.398;7.128;2022-11-25T05:43:35;9.90;99.90
2945;DHT22;1482;51.398;7.128;2022-11-25T05:46:05;9.90;99.90
2945;DHT22;1482;51.398;7.128;2022-11-25T05:48:32;9.90;99.90
2945;DHT22;1482;51.398;7.128;2022-11-25T05:51:01;9.90;99.90
2945;DHT22;1482;51.398;7.128;2022-11-25T05:53:27;9.80;99.90
2945;DHT22;1482;51.398;7.128;2022-11-25T05:55:58;9.70;99.90
2945;DHT22;1482;51.398;7.128;2022-11-25T05:58:25;9.70;99.90
2945;DHT22;1482;51.398;7.128;2022-11-25T06:00:51;9.70;99.90
2945;DHT22;1482;51.398;7.128;2022-11-25T06:03:16;9.70;99.90
2945;DHT22;1482;51.398;7.128;2022-11-25T06:05:42;9.70;99.90
2945;DHT22;1482;51.398;7.128;2022-11-25T06:08:08;9.90;1.00
2945;DHT22;1482;51.398;7.128;2022-11-25T06:10:37;10.10;99.90
2945;DHT22;1482;51.398;7.128;2022-11-25T06:13:04;10.30;99.90
2945;DHT22;1482;51.398;7.128;2022-11-25T06:15:30;10.50;99.90
2945;DHT22;1482;51.398;7.128;2022-11-25T06:17:55;10.50;99.90
2945;DHT22;1482;51.398;7.128;2022-11-25T06:20:21;10.70;99.90
2945;DHT22;1482;51.398;7.128;2022-11-25T06:22:46;10.60;99.90
2945;DHT22;1482;51.398;7.128;2022-11-25T06:25:12;10.50;99.90
2945;DHT22;1482;51.398;7.128;2022-11-25T06:27:37;10.30;99.90
2945;DHT22;1482;51.398;7.128;2022-11-25T06:30:03;10.20;99.90
2945;DHT22;1482;51.398;7.128;2022-11-25T06:32:29;10.10;99.90
2945;DHT22;1482;51.398;7.128;2022-11-25T06:34:55;10.00;99.90
2945;DHT22;1482;51.398;7.128;2022-11-25T06:37:20;9.90;99.90
2945;DHT22;1482;51.398;7.128;2022-11-25T06:39:46;9.80;99.90
2945;DHT22;1482;51.398;7.128;2022-11-25T06:42:11;9.80;99.90
2945;DHT22;1482;51.398;7.128;2022-11-25T06:44:37;9.70;99.90
2945;DHT22;1482;51.398;7.128;2022-11-25T06:47:02;9.60;99.90
2945;DHT22;1482;51.398;7.128;2022-11-25T06:49:28;9.60;99.90
2945;DHT22;1482;51.398;7.128;2022-11-25T06:51:54;9.60;99.90
2945;DHT22;1482;51.398;7.128;2022-11-25T06:54:19;9.50;99.90
2945;DHT22;1482;51.398;7.128;2022-11-25T06:56:45;9.50;99.90
2945;DHT22;1482;51.398;7.128;2022-11-25T06:59:16;9.50;99.90
2945;DHT22;1482;51.398;7.128;2022-11-25T07:01:41;9.50;99.90
2945;DHT22;1482;51.398;7.128;2022-11-25T07:04:07;9.50;99.90
2945;DHT22;1482;51.398;7.128;2022-11-25T07:06:33;9.50;99.90
2945;DHT22;1482;51.398;7.128;2022-11-25T07:08:59;9.40;99.90
2945;DHT22;1482;51.398;7.128;2022-11-25T07:11:32;9.40;99.90
2945;DHT22;1482;51.398;7.128;2022-11-25T07:14:04;9.40;99.90
2945;DHT22;1482;51.398;7.128;2022-11-25T07:16:30;9.40;1.00
2945;DHT22;1482;51.398;7.128;2022-11-25T07:18:58;9.40;1.00
2945;DHT22;1482;51.398;7.128;2022-11-25T07:21:26;9.30;1.00
2945;DHT22;1482;51.398;7.128;2022-11-25T07:23:52;9.30;1.00
2945;DHT22;1482;51.398;7.128;2022-11-25T07:26:20;9.30;1.00
2945;DHT22;1482;51.398;7.128;2022-11-25T07:28:47;9.30;1.00
2945;DHT22;1482;51.398;7.128;2022-11-25T07:33:40;9.30;1.00
2945;DHT22;1482;51.398;7.128;2022-11-25T07:36:07;9.30;1.00
2945;DHT22;1482;51.398;7.128;2022-11-25T07:38:34;9.30;1.00
2945;DHT22;1482;51.398;7.128;2022-11-25T07:41:14;9.30;1.00
2945;DHT22;1482;51.398;7.128;2022-11-25T07:43:40;9.30;1.00
2945;DHT22;1482;51.398;7.128;2022-11-25T07:48:41;9.30;1.00
2945;DHT22;1482;51.398;7.128;2022-11-25T07:51:21;9.30;1.00
2945;DHT22;1482;51.398;7.128;2022-11-25T07:53:48;9.30;1.00
2945;DHT22;1482;51.398;7.128;2022-11-25T07:56:14;9.20;1.00
2945;DHT22;1482;51.398;7.128;2022-11-25T07:58:41;9.30;1.00
2945;DHT22;1482;51.398;7.128;2022-11-25T08:01:09;9.30;1.00
2945;DHT22;1482;51.398;7.128;2022-11-25T08:03:37;9.30;1.00
2945;DHT22;1482;51.398;7.128;2022-11-25T08:06:04;9.30;1.00
2945;DHT22;1482;51.398;7.128;2022-11-25T08:08:30;9.30;1.00
2945;DHT22;1482;51.398;7.128;2022-11-25T08:10:55;9.40;1.00
2945;DHT22;1482;51.398;7.128;2022-11-25T08:13:21;9.40;1.00
2945;DHT22;1482;51.398;7.128;2022-11-25T08:15:47;9.50;1.00
2945;DHT22;1482;51.398;7.128;2022-11-25T08:18:12;9.50;99.90
2945;DHT22;1482;51.398;7.128;2022-11-25T08:20:38;9.50;99.90
2945;DHT22;1482;51.398;7.128;2022-11-25T08:23:03;9.50;1.00
2945;DHT22;1482;51.398;7.128;2022-11-25T08:25:29;9.70;1.00
2945;DHT22;1482;51.398;7.128;2022-11-25T08:27:57;10.00;99.90
2945;DHT22;1482;51.398;7.128;2022-11-25T08:30:23;10.60;99.90
2945;DHT22;1482;51.398;7.128;2022-11-25T08:32:50;11.90;99.90
2945;DHT22;1482;51.398;7.128;2022-11-25T08:35:17;12.70;51.50
2945;DHT22;1482;51.398;7.128;2022-11-25T08:37:42;13.90;12.50
2945;DHT22;1482;51.398;7.128;2022-11-25T08:40:09;15.10;1.00
2945;DHT22;1482;51.398;7.128;2022-11-25T08:42:35;16.10;1.00
2945;DHT22;1482;51.398;7.128;2022-11-25T08:45:01;16.40;1.00
2945;DHT22;1482;51.398;7.128;2022-11-25T08:47:26;16.80;1.00
2945;DHT22;1482;51.398;7.128;2022-11-25T08:49:53;17.80;1.00
2945;DHT22;1482;51.398;7.128;2022-11-25T08:52:19;18.60;1.00
2945;DHT22;1482;51.398;7.128;2022-11-25T08:54:45;18.80;1.00
2945;DHT22;1482;51.398;7.128;2022-11-25T08:57:11;18.60;1.00
2945;DHT22;1482;51.398;7.128;2022-11-25T08:59:36;18.00;1.00
2945;DHT22;1482;51.398;7.128;2022-11-25T09:02:04;17.10;1.00
2945;DHT22;1482;51.398;7.128;2022-11-25T09:04:30;17.40;1.00
2945;DHT22;1482;51.398;7.128;2022-11-25T09:06:55;18.70;1.00
2945;DHT22;1482;51.398;7.128;2022-11-25T09:09:21;20.00;1.00
2945;DHT22;1482;51.398;7.128;2022-11-25T09:11:47;20.30;1.00
2945;DHT22;1482;51.398;7.128;2022-11-25T09:14:12;20.50;1.00
2945;DHT22;1482;51.398;7.128;2022-11-25T09:16:38;20.90;1.00
2945;DHT22;1482;51.398;7.128;2022-11-25T09:19:03;21.60;1.00
2945;DHT22;1482;51.398;7.128;2022-11-25T09:21:30;21.90;1.00
2945;DHT22;1482;51.398;7.128;2022-11-25T09:23:56;22.10;1.00
2945;DHT22;1482;51.398;7.128;2022-11-25T09:26:28;22.30;1.00
2945;DHT22;1482;51.398;7.128;2022-11-25T09:28:54;22.90;1.00
2945;DHT22;1482;51.398;7.128;2022-11-25T09:31:21;22.40;1.00
2945;DHT22;1482;51.398;7.128;2022-11-25T09:33:47;22.10;1.00
2945;DHT22;1482;51.398;7.128;2022-11-25T09:36:15;22.60;1.00
2945;DHT22;1482;51.398;7.128;2022-11-25T09:38:41;22.10;1.00
2945;DHT22;1482;51.398;7.128;2022-11-25T09:41:24;21.20;1.00
2945;DHT22;1482;51.398;7.128;2022-11-25T09:47:19;18.90;1.00
2945;DHT22;1482;51.398;7.128;2022-11-25T09:50:24;18.00;1.00
2945;DHT22;1482;51.398;7.128;2022-11-25T09:53:15;16.70;1.00
2945;DHT22;1482;51.398;7.128;2022-11-25T09:55:48;16.10;1.00
2945;DHT22;1482;51.398;7.128;2022-11-25T10:00:59;15.40;1.00
2945;DHT22;1482;51.398;7.128;2022-11-25T10:06:52;15.10;1.00
2945;DHT22;1482;51.398;7.128;2022-11-25T10:09:24;14.70;1.00
2945;DHT22;1482;51.398;7.128;2022-11-25T10:12:00;14.30;1.00
2945;DHT22;1482;51.398;7.128;2022-11-25T10:14:31;14.00;1.00
2945;DHT22;1482;51.398;7.128;2022-11-25T10:22:25;13.50;1.00
2945;DHT22;1482;51.398;7.128;2022-11-25T10:25:00;13.30;1.00
2945;DHT22;1482;51.398;7.128;2022-11-25T10:32:54;12.80;1.00
2945;DHT22;1482;51.398;7.128;2022-11-25T10:35:30;12.80;1.00
2945;DHT22;1482;51.398;7.128;2022-11-25T10:37:59;12.90;1.00
2945;DHT22;1482;51.398;7.128;2022-11-25T10:40:26;12.90;1.00
2945;DHT22;1482;51.398;7.128;2022-11-25T10:42:51;12.90;1.00
2945;DHT22;1482;51.398;7.128;2022-11-25T10:45:19;12.90;1.00
2945;DHT22;1482;51.398;7.128;2022-11-25T10:48:08;13.10;1.00
2945;DHT22;1482;51.398;7.128;2022-11-25T10:53:21;13.50;1.00
2945;DHT22;1482;51.398;7.128;2022-11-25T10:55:57;13.50;1.00
2945;DHT22;1482;51.398;7.128;2022-11-25T10:58:30;13.60;1.00
2945;DHT22;1482;51.398;7.128;2022-11-25T11:03:27;13.50;1.00
2945;DHT22;1482;51.398;7.128;2022-11-25T11:05:53;13.60;1.00
2945;DHT22;1482;51.398;7.128;2022-11-25T11:10:46;13.70;1.00
2945;DHT22;1482;51.398;7.128;2022-11-25T11:13:23;13.80;1.00
2945;DHT22;1482;51.398;7.128;2022-11-25T11:15:51;14.00;1.00
2945;DHT22;1482;51.398;7.128;2022-11-25T11:18:28;14.10;1.00
2945;DHT22;1482;51.398;7.128;2022-11-25T11:20:56;14.10;1.00
2945;DHT22;1482;51.398;7.128;2022-11-25T11:23:23;14.10;1.00
2945;DHT22;1482;51.398;7.128;2022-11-25T11:26:01;14.30;1.00
2945;DHT22;1482;51.398;7.128;2022-11-25T11:28:38;14.30;1.00
2945;DHT22;1482;51.398;7.128;2022-11-25T11:31:13;14.30;1.00
2945;DHT22;1482;51.398;7.128;2022-11-25T11:36:33;14.60;1.00
2945;DHT22;1482;51.398;7.128;2022-11-25T11:39:23;14.70;1.00
2945;DHT22;1482;51.398;7.128;2022-11-25T11:50:49;14.60;1.00
2945;DHT22;1482;51.398;7.128;2022-11-25T11:53:43;14.60;1.00
2945;DHT22;1482;51.398;7.128;2022-11-25T11:56:52;14.60;1.00
2945;DHT22;1482;51.398;7.128;2022-11-25T11:59:50;14.70;1.00
2945;DHT22;1482;51.398;7.128;2022-11-25T12:02:48;14.80;1.00
2945;DHT22;1482;51.398;7.128;2022-11-25T12:05:18;14.60;1.00
2945;DHT22;1482;51.398;7.128;2022-11-25T12:10:55;14.60;1.00
2945;DHT22;1482;51.398;7.128;2022-11-25T12:13:36;14.70;1.00
2945;DHT22;1482;51.398;7.128;2022-11-25T12:16:12;14.70;1.00
2945;DHT22;1482;51.398;7.128;2022-11-25T12:18:48;14.70;1.00
2945;DHT22;1482;51.398;7.128;2022-11-25T12:21:44;14.80;1.00
2945;DHT22;1482;51.398;7.128;2022-11-25T12:27:22;14.50;1.00
2945;DHT22;1482;51.398;7.128;2022-11-25T12:35:39;14.20;1.00
2945;DHT22;1482;51.398;7.128;2022-11-25T12:41:25;14.20;1.00
2945;DHT22;1482;51.398;7.128;2022-11-25T12:43:57;14.20;1.00
2945;DHT22;1482;51.398;7.128;2022-11-25T12:46:36;14.20;1.00
2945;DHT22;1482;51.398;7.128;2022-11-25T12:49:06;14.10;1.00
2945;DHT22;1482;51.398;7.128;2022-11-25T13:00:54;13.70;1.00
2945;DHT22;1482;51.398;7.128;2022-11-25T13:09:16;13.70;1.00
2945;DHT22;1482;51.398;7.128;2022-11-25T13:17:10;13.80;1.00
2945;DHT22;1482;51.398;7.128;2022-11-25T13:19:37;13.80;1.00
2945;DHT22;1482;51.398;7.128;2022-11-25T13:22:04;13.70;1.00
2945;DHT22;1482;51.398;7.128;2022-11-25T13:24:40;13.70;1.00
2945;DHT22;1482;51.398;7.128;2022-11-25T13:27:29;13.70;1.00
2945;DHT22;1482;51.398;7.128;2022-11-25T13:29:55;13.80;1.00
2945;DHT22;1482;51.398;7.128;2022-11-25T13:32:35;13.80;1.00
2945;DHT22;1482;51.398;7.128;2022-11-25T13:37:46;13.80;1.00
2945;DHT22;1482;51.398;7.128;2022-11-25T13:42:54;14.10;1.00
2945;DHT22;1482;51.398;7.128;2022-11-25T13:45:40;14.20;1.00
2945;DHT22;1482;51.398;7.128;2022-11-25T13:48:27;14.20;1.00
2945;DHT22;1482;51.398;7.128;2022-11-25T13:51:32;14.10;1.00
2945;DHT22;1482;51.398;7.128;2022-11-25T13:54:00;14.10;1.00
2945;DHT22;1482;51.398;7.128;2022-11-25T13:56:35;14.10;1.00
2945;DHT22;1482;51.398;7.128;2022-11-25T14:01:56;14.00;1.00
2945;DHT22;1482;51.398;7.128;2022-11-25T14:05:03;13.90;1.00
2945;DHT22;1482;51.398;7.128;2022-11-25T14:08:31;13.90;1.00
2945;DHT22;1482;51.398;7.128;2022-11-25T14:24:41;13.50;1.00
2945;DHT22;1482;51.398;7.128;2022-11-25T14:27:34;13.40;1.00
2945;DHT22;1482;51.398;7.128;2022-11-25T14:30:02;13.40;1.00
2945;DHT22;1482;51.398;7.128;2022-11-25T14:32:39;13.30;1.00
2945;DHT22;1482;51.398;7.128;2022-11-25T14:35:20;13.20;1.00
2945;DHT22;1482;51.398;7.128;2022-11-25T14:38:12;13.20;1.00
2945;DHT22;1482;51.398;7.128;2022-11-25T14:41:03;13.00;1.00
2945;DHT22;1482;51.398;7.128;2022-11-25T14:43:38;13.00;1.00
2945;DHT22;1482;51.398;7.128;2022-11-25T14:46:13;12.90;1.00
2945;DHT22;1482;51.398;7.128;2022-11-25T14:48:40;12.80;1.00
2945;DHT22;1482;51.398;7.128;2022-11-25T14:51:09;12.70;1.00
2945;DHT22;1482;51.398;7.128;2022-11-25T14:53:46;12.70;1.00
2945;DHT22;1482;51.398;7.128;2022-11-25T14:56:13;12.60;1.00
2945;DHT22;1482;51.398;7.128;2022-11-25T14:58:41;12.50;1.00
2945;DHT22;1482;51.398;7.128;2022-11-25T15:01:20;12.50;1.00
2945;DHT22;1482;51.398;7.128;2022-11-25T15:03:59;12.50;1.00
2945;DHT22;1482;51.398;7.128;2022-11-25T15:06:49;12.40;1.00
2945;DHT22;1482;51.398;7.128;2022-11-25T15:09:26;12.40;1.00
2945;DHT22;1482;51.398;7.128;2022-11-25T15:12:03;12.40;1.00
2945;DHT22;1482;51.398;7.128;2022-11-25T15:14:32;12.10;1.00
2945;DHT22;1482;51.398;7.128;2022-11-25T15:16:58;12.10;1.00
2945;DHT22;1482;51.398;7.128;2022-11-25T15:19:29;12.10;1.00
2945;DHT22;1482;51.398;7.128;2022-11-25T15:22:04;12.00;1.00
2945;DHT22;1482;51.398;7.128;2022-11-25T15:24:41;12.00;1.00
2945;DHT22;1482;51.398;7.128;2022-11-25T15:27:24;11.90;1.00
2945;DHT22;1482;51.398;7.128;2022-11-25T15:29:50;11.90;1.00
2945;DHT22;1482;51.398;7.128;2022-11-25T15:32:29;11.80;1.00
2945;DHT22;1482;51.398;7.128;2022-11-25T15:34:57;11.80;1.00
2945;DHT22;1482;51.398;7.128;2022-11-25T15:37:24;11.80;1.00
2945;DHT22;1482;51.398;7.128;2022-11-25T15:42:54;11.70;1.00
2945;DHT22;1482;51.398;7.128;2022-11-25T15:45:20;11.70;1.00
2945;DHT22;1482;51.398;7.128;2022-11-25T15:47:46;11.60;1.00
2945;DHT22;1482;51.398;7.128;2022-11-25T15:50:17;11.60;1.00
2945;DHT22;1482;51.398;7.128;2022-11-25T15:52:47;11.50;1.00
2945;DHT22;1482;51.398;7.128;2022-11-25T15:57:51;11.40;1.00
2945;DHT22;1482;51.398;7.128;2022-11-25T16:00:20;11.40;1.00
2945;DHT22;1482;51.398;7.128;2022-11-25T16:02:48;11.30;1.00
2945;DHT22;1482;51.398;7.128;2022-11-25T16:05:15;11.20;1.00
2945;DHT22;1482;51.398;7.128;2022-11-25T16:16:01;11.30;1.00
2945;DHT22;1482;51.398;7.128;2022-11-25T16:21:26;11.20;1.00
2945;DHT22;1482;51.398;7.128;2022-11-25T16:23:59;11.20;1.00
2945;DHT22;1482;51.398;7.128;2022-11-25T16:26:36;11.20;1.00
2945;DHT22;1482;51.398;7.128;2022-11-25T16:29:14;11.20;1.00
2945;DHT22;1482;51.398;7.128;2022-11-25T16:31:40;11.20;1.00
2945;DHT22;1482;51.398;7.128;2022-11-25T16:34:17;11.20;6.20
2945;DHT22;1482;51.398;7.128;2022-11-25T16:36:43;11.20;1.00
2945;DHT22;1482;51.398;7.128;2022-11-25T16:39:09;11.10;1.00
2945;DHT22;1482;51.398;7.128;2022-11-25T16:41:35;11.20;1.20
2945;DHT22;1482;51.398;7.128;2022-11-25T16:44:03;11.10;2.30
2945;DHT22;1482;51.398;7.128;2022-11-25T16:46:29;11.10;3.50
2945;DHT22;1482;51.398;7.128;2022-11-25T16:48:54;11.20;4.70
2945;DHT22;1482;51.398;7.128;2022-11-25T16:51:22;11.20;1.80
2945;DHT22;1482;51.398;7.128;2022-11-25T16:53:49;11.20;1.60
2945;DHT22;1482;51.398;7.128;2022-11-25T16:56:19;11.20;1.00
2945;DHT22;1482;51.398;7.128;2022-11-25T16:58:47;11.20;1.00
2945;DHT22;1482;51.398;7.128;2022-11-25T17:01:14;11.20;1.00
2945;DHT22;1482;51.398;7.128;2022-11-25T17:03:41;11.20;1.00
2945;DHT22;1482;51.398;7.128;2022-11-25T17:06:13;11.10;1.00
2945;DHT22;1482;51.398;7.128;2022-11-25T17:08:39;11.10;1.00
2945;DHT22;1482;51.398;7.128;2022-11-25T17:11:07;11.10;2.40
2945;DHT22;1482;51.398;7.128;2022-11-25T17:13:34;11.10;1.70
2945;DHT22;1482;51.398;7.128;2022-11-25T17:16:02;11.10;1.70
2945;DHT22;1482;51.398;7.128;2022-11-25T17:18:28;11.10;1.00
2945;DHT22;1482;51.398;7.128;2022-11-25T17:20:53;11.00;9.80
2945;DHT22;1482;51.398;7.128;2022-11-25T17:23:19;11.00;4.40
2945;DHT22;1482;51.398;7.128;2022-11-25T17:25:47;11.00;3.50
2945;DHT22;1482;51.398;7.128;2022-11-25T17:28:16;11.00;4.40
2945;DHT22;1482;51.398;7.128;2022-11-25T17:30:43;11.00;3.50
2945;DHT22;1482;51.398;7.128;2022-11-25T17:33:14;11.10;11.00
2945;DHT22;1482;51.398;7.128;2022-11-25T17:35:41;11.00;4.80
2945;DHT22;1482;51.398;7.128;2022-11-25T17:38:17;11.00;7.30
2945;DHT22;1482;51.398;7.128;2022-11-25T17:40:44;11.00;8.30
2945;DHT22;1482;51.398;7.128;2022-11-25T17:43:14;11.00;8.30
2945;DHT22;1482;51.398;7.128;2022-11-25T17:45:41;11.10;5.80
2945;DHT22;1482;51.398;7.128;2022-11-25T17:48:12;11.10;6.60
2945;DHT22;1482;51.398;7.128;2022-11-25T17:50:38;11.10;5.10
2945;DHT22;1482;51.398;7.128;2022-11-25T17:53:04;11.10;5.40
2945;DHT22;1482;51.398;7.128;2022-11-25T17:55:30;11.10;5.10
2945;DHT22;1482;51.398;7.128;2022-11-25T17:57:56;11.20;3.10
2945;DHT22;1482;51.398;7.128;2022-11-25T18:00:22;11.20;3.00
2945;DHT22;1482;51.398;7.128;2022-11-25T18:02:48;11.20;4.80
2945;DHT22;1482;51.398;7.128;2022-11-25T18:05:19;11.20;3.00
2945;DHT22;1482;51.398;7.128;2022-11-25T18:07:46;11.20;4.00
2945;DHT22;1482;51.398;7.128;2022-11-25T18:10:13;11.20;2.60
2945;DHT22;1482;51.398;7.128;2022-11-25T18:12:41;11.10;3.60
2945;DHT22;1482;51.398;7.128;2022-11-25T18:15:17;11.10;4.90
2945;DHT22;1482;51.398;7.128;2022-11-25T18:17:43;11.10;3.90
2945;DHT22;1482;51.398;7.128;2022-11-25T18:20:21;11.10;5.20
2945;DHT22;1482;51.398;7.128;2022-11-25T18:22:49;11.20;4.70
2945;DHT22;1482;51.398;7.128;2022-11-25T18:25:17;11.10;6.30
2945;DHT22;1482;51.398;7.128;2022-11-25T18:27:43;11.10;10.40
2945;DHT22;1482;51.398;7.128;2022-11-25T18:30:18;11.00;18.40
2945;DHT22;1482;51.398;7.128;2022-11-25T18:32:44;10.90;22.20
2945;DHT22;1482;51.398;7.128;2022-11-25T18:35:27;10.90;22.80
2945;DHT22;1482;51.398;7.128;2022-11-25T18:37:53;10.90;25.50